Map

Track Data

SID SEASON NUMBER BASIN SUBBASIN NAME ISO_TIME NATURE LAT LON WMO_WIND WMO_PRES WMO_AGENCY TRACK_TYPE DIST2LAND LANDFALL IFLAG USA_AGENCY USA_ATCF_ID USA_LAT USA_LON USA_RECORD USA_STATUS USA_WIND USA_PRES USA_SSHS USA_R34_NE USA_R34_SE USA_R34_SW USA_R34_NW USA_R50_NE USA_R50_SE USA_R50_SW USA_R50_NW USA_R64_NE USA_R64_SE USA_R64_SW USA_R64_NW USA_POCI USA_ROCI USA_RMW USA_EYE TOKYO_LAT TOKYO_LON TOKYO_GRADE TOKYO_WIND TOKYO_PRES TOKYO_R50_DIR TOKYO_R50_LONG TOKYO_R50_SHORT TOKYO_R30_DIR TOKYO_R30_LONG TOKYO_R30_SHORT TOKYO_LAND CMA_LAT CMA_LON CMA_CAT CMA_WIND CMA_PRES HKO_LAT HKO_LON HKO_CAT HKO_WIND HKO_PRES NEWDELHI_LAT NEWDELHI_LON NEWDELHI_GRADE NEWDELHI_WIND NEWDELHI_PRES NEWDELHI_CI NEWDELHI_DP NEWDELHI_POCI REUNION_LAT REUNION_LON REUNION_TYPE REUNION_WIND REUNION_PRES REUNION_TNUM REUNION_CI REUNION_RMW REUNION_R34_NE REUNION_R34_SE REUNION_R34_SW REUNION_R34_NW REUNION_R50_NE REUNION_R50_SE REUNION_R50_SW REUNION_R50_NW REUNION_R64_NE REUNION_R64_SE REUNION_R64_SW REUNION_R64_NW BOM_LAT BOM_LON BOM_TYPE BOM_WIND BOM_PRES BOM_TNUM BOM_CI BOM_RMW BOM_R34_NE BOM_R34_SE BOM_R34_SW BOM_R34_NW BOM_R50_NE BOM_R50_SE BOM_R50_SW BOM_R50_NW BOM_R64_NE BOM_R64_SE BOM_R64_SW BOM_R64_NW BOM_ROCI BOM_POCI BOM_EYE BOM_POS_METHOD BOM_PRES_METHOD NADI_LAT NADI_LON NADI_CAT NADI_WIND NADI_PRES WELLINGTON_LAT WELLINGTON_LON WELLINGTON_WIND WELLINGTON_PRES DS824_LAT DS824_LON DS824_STAGE DS824_WIND DS824_PRES TD9636_LAT TD9636_LON TD9636_STAGE TD9636_WIND TD9636_PRES TD9635_LAT TD9635_LON TD9635_WIND TD9635_PRES TD9635_ROCI NEUMANN_LAT NEUMANN_LON NEUMANN_CLASS NEUMANN_WIND NEUMANN_PRES MLC_LAT MLC_LON MLC_CLASS MLC_WIND MLC_PRES USA_GUST BOM_GUST BOM_GUST_PER REUNION_GUST REUNION_GUST_PER USA_SEAHGT USA_SEARAD_NE USA_SEARAD_SE USA_SEARAD_SW USA_SEARAD_NW STORM_SPEED STORM_DIR
1865274N20278 1865 21 NA CS NOT_NAMED 1865-09-30 12:00:00 TS 19.5000 -82.3000 main 218 186 _____________O -1 19.5000 -82.3000 TS 35 7 8
1865274N20278 1865 21 NA CS NOT_NAMED 1865-09-30 15:00:00 TS 19.8500 -82.2476 main 178 147 _____________P -1 19.8500 -82.2476 TS 37 7 8
1865274N20278 1865 21 NA CS NOT_NAMED 1865-09-30 18:00:00 TS 20.2000 -82.2000 main 147 118 _____________O -1 20.2000 -82.2000 TS 40 7 7
1865274N20278 1865 21 NA CS NOT_NAMED 1865-09-30 21:00:00 TS 20.5500 -82.1574 main 118 88 _____________P -1 20.5500 -82.1574 TS 42 7 8
1865274N20278 1865 21 NA CS NOT_NAMED 1865-10-01 00:00:00 TS 20.9000 -82.1000 main 88 68 _____________O -1 20.9000 -82.1000 TS 45 7 12
1865274N20278 1865 21 NA CS NOT_NAMED 1865-10-01 03:00:00 TS 21.2500 -82.0001 main 61 56 _____________P -1 21.2500 -82.0001 TS 47 7 15
1865274N20278 1865 21 NA CS NOT_NAMED 1865-10-01 06:00:00 TS 21.6000 -81.9000 main 62 35 _____________O -1 21.6000 -81.9000 TS 50 7 10
1865274N20278 1865 21 NA CS NOT_NAMED 1865-10-01 09:00:00 TS 21.9499 -81.8722 main 35 0 _____________P -1 21.9499 -81.8722 TS 52 7 7
1865274N20278 1865 21 NA NA NOT_NAMED 1865-10-01 12:00:00 TS 22.3000 -81.8000 main 0 0 _____________O -1 22.3000 -81.8000 TS 55 8 21
1865274N20278 1865 21 NA NA NOT_NAMED 1865-10-01 15:00:00 TS 22.6576 -81.5727 main 0 0 _____________P -1 22.6576 -81.5727 TS 55 8 33
1865274N20278 1865 21 NA NA NOT_NAMED 1865-10-01 18:00:00 TS 23.0000 -81.3000 main 0 0 _____________O -1 23.0000 -81.3000 TS 55 8 34
1865274N20278 1865 21 NA NA NOT_NAMED 1865-10-01 21:00:00 TS 23.2999 -81.0997 main 30 30 _____________P -1 23.2999 -81.0997 TS 55 7 31
1865274N20278 1865 21 NA NA NOT_NAMED 1865-10-02 00:00:00 TS 23.6000 -80.9000 main 67 67 _____________O -1 23.6000 -80.9000 TS 55 8 32
1865274N20278 1865 21 NA NA NOT_NAMED 1865-10-02 03:00:00 TS 23.9500 -80.6501 main 111 89 _____________P -1 23.9500 -80.6501 TS 52 8 33
1865274N20278 1865 21 NA NA NOT_NAMED 1865-10-02 06:00:00 TS 24.3000 -80.4000 main 89 56 _____________O -1 24.3000 -80.4000 TS 50 7 27
1865274N20278 1865 21 NA NA NOT_NAMED 1865-10-02 09:00:00 TS 24.6066 -80.2891 main 56 37 _____________P -1 24.6066 -80.2891 TS 50 7 31
1865274N20278 1865 21 NA NA NOT_NAMED 1865-10-02 12:00:00 TS 24.9000 -80.0000 main 46 46 _____________O -1 24.9000 -80.0000 TS 50 11 58
1865274N20278 1865 21 NA NA NOT_NAMED 1865-10-02 15:00:00 TS 25.2007 -79.2477 main 97 52 _____________P -1 25.2007 -79.2477 TS 50 17 69
1865274N20278 1865 21 NA NA NOT_NAMED 1865-10-02 18:00:00 TS 25.5000 -78.3000 main 48 45 _____________O -1 25.5000 -78.3000 TS 50 17 70
1865274N20278 1865 21 NA NA NOT_NAMED 1865-10-02 21:00:00 TS 25.7995 -77.4496 main 98 98 _____________P -1 25.7995 -77.4496 TS 50 16 69
1865274N20278 1865 21 NA NA NOT_NAMED 1865-10-03 00:00:00 TS 26.1000 -76.6000 main 179 179 _____________O -1 26.1000 -76.6000 TS 50 16 69
1865274N20278 1865 21 NA NA NOT_NAMED 1865-10-03 03:00:00 TS 26.3995 -75.7496 main 272 272 _____________P -1 26.3995 -75.7496 TS 50 16 68
1865274N20278 1865 21 NA NA NOT_NAMED 1865-10-03 06:00:00 TS 26.7000 -74.9000 main 357 357 _____________O -1 26.7000 -74.9000 TS 50 15 72
1865274N20278 1865 21 NA NA NOT_NAMED 1865-10-03 09:00:00 TS 26.8531 -74.1990 main 429 429 _____________P -1 26.8531 -74.1990 TS 50 16 68
1865274N20278 1865 21 NA NA NOT_NAMED 1865-10-03 12:00:00 TS 27.3000 -73.2000 main 537 537 _____________O -1 27.3000 -73.2000 TS 50 29 57
1865274N20278 1865 21 NA NA NOT_NAMED 1865-10-03 15:00:00 TS 28.4177 -71.4696 main 742 742 _____________P -1 28.4177 -71.4696 TS 50 42 53
1865274N20278 1865 21 NA NA NOT_NAMED 1865-10-03 18:00:00 TS 29.8000 -69.4000 main 861 860 _____________O -1 29.8000 -69.4000 TS 50 43 54
1865274N20278 1865 21 NA NA NOT_NAMED 1865-10-03 21:00:00 TS 30.9822 -67.4581 main 913 913 _____________P -1 30.9822 -67.4581 TS 50 41 54
1865274N20278 1865 21 NA NA NOT_NAMED 1865-10-04 00:00:00 TS 32.2000 -65.5000 main 1003 1003 _____________O -1 32.2000 -65.5000 TS 50 1001 42 53
1865274N20278 1865 21 NA NA NOT_NAMED 1865-10-04 03:00:00 TS 33.5323 -63.5036 main 1076 1019 _____________P -1 33.5323 -63.5036 TS 50 43 51
1865274N20278 1865 21 NA NA NOT_NAMED 1865-10-04 06:00:00 TS 34.9000 -61.5000 main 1011 959 _____________O -1 34.9000 -61.5000 TS 50 44 52
1865274N20278 1865 21 NA NA NOT_NAMED 1865-10-04 09:00:00 TS 36.2201 -59.2521 main 958 915 _____________P -1 36.2201 -59.2521 TS 45 41 51
1865274N20278 1865 21 NA NA NOT_NAMED 1865-10-04 12:00:00 TS 37.5000 -57.5000 main 907 801 _____________O -1 37.5000 -57.5000 TS 40 31 36
1865274N20278 1865 21 NA NA NOT_NAMED 1865-10-04 15:00:00 TS 38.7511 -56.9311 main 791 681 _____________P -1 38.7511 -56.9311 TS 37 25 11
1865274N20278 1865 21 NA NA NOT_NAMED 1865-10-04 18:00:00 ET 40.0000 -56.9000 main 671 574 _____________O -1 40.0000 -56.9000 EX 35 25 6
1865274N20278 1865 21 NA NA NOT_NAMED 1865-10-04 21:00:00 ET 41.2499 -56.5989 main 574 482 _____________P -1 41.2499 -56.5989 EX 35 25 10
1865274N20278 1865 21 NA NA NOT_NAMED 1865-10-05 00:00:00 ET 42.5000 -56.3000 main 474 345 _____________O -1 42.5000 -56.3000 EX 35 25 10
1865274N20278 1865 21 NA NA NOT_NAMED 1865-10-05 03:00:00 ET 43.7498 -56.0058 main 345 211 _____________P -1 43.7498 -56.0058 EX 37 25 10
1865274N20278 1865 21 NA NA NOT_NAMED 1865-10-05 06:00:00 ET 45.0000 -55.7000 main 199 56 _____________O -1 45.0000 -55.7000 EX 40 26 7
1865274N20278 1865 21 NA NA NOT_NAMED 1865-10-05 09:00:00 ET 46.3433 -55.5447 main 57 0 _____________P -1 46.3433 -55.5447 EX 40 25 11
1865274N20278 1865 21 NA NA NOT_NAMED 1865-10-05 12:00:00 ET 47.5000 -55.0000 main 0 0 _____________O -1 47.5000 -55.0000 EX 40 23 36
1865274N20278 1865 21 NA NA NOT_NAMED 1865-10-05 15:00:00 ET 48.2084 -53.5516 main 0 0 _____________P -1 48.2084 -53.5516 EX 40 25 61
1865274N20278 1865 21 NA NA NOT_NAMED 1865-10-05 18:00:00 ET 48.7000 -51.7000 main 97 97 _____________O -1 48.7000 -51.7000 EX 40 25 67
1865274N20278 1865 21 NA NA NOT_NAMED 1865-10-05 21:00:00 ET 49.2179 -49.9993 main 231 231 _____________P -1 49.2179 -49.9993 EX 40 25 64
1865274N20278 1865 21 NA NA NOT_NAMED 1865-10-06 00:00:00 ET 49.8000 -48.3000 main 369 369 _____________O -1 49.8000 -48.3000 EX 40 26 57
1865274N20278 1865 21 NA NA NOT_NAMED 1865-10-06 03:00:00 ET 50.6350 -46.6065 main 511 511 _____________P -1 50.6350 -46.6065 EX 40 27 53
1865274N20278 1865 21 NA NA NOT_NAMED 1865-10-06 06:00:00 ET 51.4000 -44.9000 main 649 649 _____________O -1 51.4000 -44.9000 EX 40 24 61
1865274N20278 1865 21 NA NA NOT_NAMED 1865-10-06 09:00:00 ET 51.8169 -43.2020 main 774 774 _____________P -1 51.8169 -43.2020 EX 42 22 74
1865274N20278 1865 21 NA NA NOT_NAMED 1865-10-06 12:00:00 ET 52.0000 -41.5000 main 892 892 _____________O -1 52.0000 -41.5000 EX 45 21 84
1865274N20278 1865 21 NA NA NOT_NAMED 1865-10-06 15:00:00 ET 52.0426 -39.7523 main 919 919 _____________P -1 52.0426 -39.7523 EX 47 21 90
1865274N20278 1865 21 NA NA NOT_NAMED 1865-10-06 18:00:00 ET 52.0000 -38.0000 main 950 950 _____________O -1 52.0000 -38.0000 EX 50 21 91
1865274N20278 1865 21 NA NA NOT_NAMED 1865-10-06 21:00:00 ET 52.0049 -36.2509 main 989 989 _____________P -1 52.0049 -36.2509 EX 52 21 90
1865274N20278 1865 21 NA NA NOT_NAMED 1865-10-07 00:00:00 ET 52.0000 -34.5000 main 1040 1040 _____________O -1 52.0000 -34.5000 EX 55 21 91
1865274N20278 1865 21 NA NA NOT_NAMED 1865-10-07 03:00:00 ET 51.9549 -32.7495 main 1100 1100 _____________P -1 51.9549 -32.7495 EX 57 21 93
1865274N20278 1865 21 NA NA NOT_NAMED 1865-10-07 06:00:00 ET 51.9000 -31.0000 main 1173 1173 _____________O -1 51.9000 -31.0000 EX 60 22 92
1865274N20278 1865 21 NA NA NOT_NAMED 1865-10-07 09:00:00 ET 51.8634 -29.2295 main 1245 1163 _____________P -1 51.8634 -29.2295 EX 60 22 93
1865274N20278 1865 21 NA NA NOT_NAMED 1865-10-07 12:00:00 ET 51.8000 -27.5000 main 1156 1056 _____________O -1 51.8000 -27.5000 EX 60 21 95
1865274N20278 1865 21 NA NA NOT_NAMED 1865-10-07 15:00:00 ET 51.6690 -25.8855 main 1050 951 _____________P -1 51.6690 -25.8855 EX 60 20 99
1865274N20278 1865 21 NA NA NOT_NAMED 1865-10-07 18:00:00 ET 51.5000 -24.3000 main 944 840 _____________O -1 51.5000 -24.3000 EX 60 20 100
1865274N20278 1865 21 NA NA NOT_NAMED 1865-10-07 21:00:00 ET 51.3058 -22.6504 main 840 736 _____________P -1 51.3058 -22.6504 EX 60 21 101
1865274N20278 1865 21 NA NA NOT_NAMED 1865-10-08 00:00:00 ET 51.1000 -21.0000 main 729 633 _____________O -1 51.1000 -21.0000 EX 60 21 102
1865274N20278 1865 21 NA NA NOT_NAMED 1865-10-08 03:00:00 ET 50.8897 -19.4008 main 626 533 _____________P -1 50.8897 -19.4008 EX 60 20 101
1865274N20278 1865 21 NA NA NOT_NAMED 1865-10-08 06:00:00 ET 50.7000 -17.8000 main 526 429 _____________O -1 50.7000 -17.8000 EX 60 21 100
1865274N20278 1865 21 NA NA NOT_NAMED 1865-10-08 09:00:00 ET 50.5451 -16.1611 main 427 330 _____________P -1 50.5451 -16.1611 EX 55 21 98
1865274N20278 1865 21 NA NA NOT_NAMED 1865-10-08 12:00:00 ET 50.4000 -14.5000 main 324 _____________O -1 50.4000 -14.5000 EX 50 21 98

About IBTrACS Database

This database is a web-friendly format of International Best Track Archive for Climate Stewardship (IBTrACS), a global best track data archive curated by NOAA dating back to 1842.

Updated: 2021-10-08